createdAt,value
2023-01-01T00:02:03.708Z,100608.81
2023-01-01T00:04:31.786Z,100611.75
2023-01-01T00:06:58.116Z,100611.81
2023-01-01T00:09:43.262Z,100617.75
2023-01-01T00:12:09.695Z,100631.06
2023-01-01T00:14:36.034Z,100625.72
2023-01-01T00:17:02.469Z,100624.03
2023-01-01T00:19:28.808Z,100618.25
2023-01-01T00:21:55.319Z,100623.66
2023-01-01T00:24:21.677Z,100616.00
2023-01-01T00:26:48.005Z,100621.41
2023-01-01T00:29:14.343Z,100616.84
2023-01-01T00:31:40.718Z,100618.28
2023-01-01T00:34:07.240Z,100614.22
2023-01-01T00:36:33.652Z,100608.56
2023-01-01T00:39:01.935Z,100623.66
2023-01-01T00:41:28.276Z,100623.28
2023-01-01T00:43:54.605Z,100625.22
2023-01-01T00:46:21.024Z,100624.19
2023-01-01T00:48:47.547Z,100621.81
2023-01-01T00:51:14.175Z,100637.78
2023-01-01T00:53:40.640Z,100626.56
2023-01-01T00:56:07.581Z,100635.06
2023-01-01T00:58:34.233Z,100621.16
2023-01-01T01:01:00.730Z,100621.19
2023-01-01T01:03:30.306Z,100609.75
2023-01-01T01:05:59.708Z,100623.00
2023-01-01T01:08:30.923Z,100624.13
2023-01-01T01:11:08.875Z,100618.03
2023-01-01T01:13:35.699Z,100626.72
2023-01-01T01:16:08.439Z,100633.66
2023-01-01T01:18:34.798Z,100613.03
2023-01-01T01:21:01.159Z,100620.19
2023-01-01T01:23:27.626Z,100629.84
2023-01-01T01:25:54.066Z,100646.28
2023-01-01T01:28:20.394Z,100628.69
2023-01-01T01:30:46.787Z,100629.84
2023-01-01T01:33:13.149Z,100650.44
2023-01-01T01:35:39.544Z,100636.63
2023-01-01T01:38:06.348Z,100631.09
2023-01-01T01:40:33.305Z,100631.84
2023-01-01T01:42:59.639Z,100651.75
2023-01-01T01:45:32.993Z,100657.72
2023-01-01T01:48:00.012Z,100643.91
2023-01-01T01:50:34.046Z,100644.25
2023-01-01T01:53:15.742Z,100645.38
2023-01-01T01:55:48.719Z,100659.91
2023-01-01T01:58:16.073Z,100659.09
2023-01-01T02:00:42.449Z,100667.59
2023-01-01T02:03:13.770Z,100676.31
2023-01-01T02:05:41.303Z,100673.72
2023-01-01T02:08:08.694Z,100681.69
2023-01-01T02:10:35.130Z,100671.03
2023-01-01T02:13:01.643Z,100665.94
2023-01-01T02:15:34.585Z,100676.97
2023-01-01T02:18:11.880Z,100681.00
2023-01-01T02:21:04.359Z,100672.59
2023-01-01T02:23:46.753Z,100675.31
2023-01-01T02:26:19.579Z,100674.47
2023-01-01T02:29:02.967Z,100670.34
2023-01-01T02:31:39.794Z,100671.91
2023-01-01T02:34:11.441Z,100677.72
2023-01-01T02:36:46.055Z,100665.91
2023-01-01T02:39:15.866Z,100671.75
2023-01-01T02:41:46.803Z,100668.63
2023-01-01T02:44:13.251Z,100672.31
2023-01-01T02:46:39.605Z,100671.31
2023-01-01T02:49:10.180Z,100664.78
2023-01-01T02:52:01.025Z,100671.91
2023-01-01T02:54:33.755Z,100661.97
2023-01-01T02:57:10.218Z,100668.63
2023-01-01T03:00:21.113Z,100666.94
2023-01-01T03:03:10.031Z,100681.69
2023-01-01T03:06:14.304Z,100671.03
2023-01-01T03:09:03.532Z,100688.22
2023-01-01T03:11:43.870Z,100685.50
2023-01-01T03:14:24.740Z,100692.03
2023-01-01T03:16:57.271Z,100706.78
2023-01-01T03:19:28.223Z,100704.25
2023-01-01T03:22:07.973Z,100704.38
2023-01-01T03:24:51.423Z,100695.00
2023-01-01T03:27:22.351Z,100698.13
2023-01-01T03:29:52.690Z,100701.81
2023-01-01T03:32:51.988Z,100701.69
2023-01-01T03:35:21.118Z,100696.72
2023-01-01T03:37:51.607Z,100704.38
2023-01-01T03:40:21.041Z,100701.78
2023-01-01T03:42:55.919Z,100700.00
2023-01-01T03:45:28.274Z,100707.22
2023-01-01T03:47:55.465Z,100710.59
2023-01-01T03:50:28.540Z,100715.72
2023-01-01T03:53:07.934Z,100725.13
2023-01-01T03:55:44.065Z,100732.19
2023-01-01T03:58:24.291Z,100736.63
2023-01-01T04:00:57.862Z,100723.38
2023-01-01T04:03:27.327Z,100729.19
2023-01-01T04:05:54.417Z,100723.38
2023-01-01T04:08:21.122Z,100728.66
2023-01-01T04:10:53.724Z,100723.53
2023-01-01T04:13:20.116Z,100740.13
2023-01-01T04:15:46.516Z,100760.16
2023-01-01T04:18:12.903Z,100745.94
2023-01-01T04:20:39.245Z,100752.75
2023-01-01T04:23:05.613Z,100748.88
2023-01-01T04:25:32.459Z,100757.81
2023-01-01T04:27:59.180Z,100741.38
2023-01-01T04:30:26.786Z,100759.72
2023-01-01T04:32:54.640Z,100766.50
2023-01-01T04:35:21.032Z,100739.97
2023-01-01T04:37:48.240Z,100751.75
2023-01-01T04:40:15.046Z,100753.31
2023-01-01T04:42:41.645Z,100759.56
2023-01-01T04:45:08.627Z,100771.91
2023-01-01T04:47:35.129Z,100769.22
2023-01-01T04:50:01.535Z,100779.03
2023-01-01T04:52:27.899Z,100783.69
2023-01-01T04:54:54.245Z,100793.78
2023-01-01T04:57:20.594Z,100788.84
2023-01-01T04:59:46.953Z,100782.72
2023-01-01T05:02:13.370Z,100778.47
2023-01-01T05:04:39.861Z,100764.81
2023-01-01T05:07:06.205Z,100777.16
2023-01-01T05:09:32.552Z,100785.38
2023-01-01T05:11:58.868Z,100790.06
2023-01-01T05:14:26.248Z,100797.50
2023-01-01T05:16:53.017Z,100782.72
2023-01-01T05:19:19.408Z,100780.44
2023-01-01T05:21:46.430Z,100779.47
2023-01-01T05:24:13.212Z,100767.81
2023-01-01T05:26:42.454Z,100774.91
2023-01-01T05:29:15.589Z,100776.47
2023-01-01T05:31:43.939Z,100764.97
2023-01-01T05:34:10.441Z,100764.97
2023-01-01T05:36:38.932Z,100776.88
2023-01-01T05:39:07.000Z,100789.25
2023-01-01T05:41:36.160Z,100795.47
2023-01-01T05:44:04.992Z,100804.44
2023-01-01T05:46:32.153Z,100806.16
2023-01-01T05:48:58.584Z,100811.66
2023-01-01T05:51:27.129Z,100809.13
2023-01-01T05:53:54.925Z,100808.56
2023-01-01T05:56:21.927Z,100809.69
2023-01-01T05:58:48.394Z,100815.09
2023-01-01T06:01:24.183Z,100835.81
2023-01-01T06:03:51.456Z,100836.66
2023-01-01T06:06:20.654Z,100842.66
2023-01-01T06:08:54.554Z,100831.94
2023-01-01T06:11:21.246Z,100830.78
2023-01-01T06:13:48.413Z,100845.50
2023-01-01T06:16:15.128Z,100846.91
2023-01-01T06:18:41.619Z,100854.56
2023-01-01T06:21:19.861Z,100860.84
2023-01-01T06:23:46.469Z,100844.09
2023-01-01T06:26:14.204Z,100858.88
2023-01-01T06:28:41.602Z,100868.53
2023-01-01T06:31:09.942Z,100876.63
2023-01-01T06:33:37.363Z,100875.06
2023-01-01T06:36:06.490Z,100879.91
2023-01-01T06:38:34.818Z,100885.16
2023-01-01T06:41:04.630Z,100874.94
2023-01-01T06:43:33.142Z,100886.28
2023-01-01T06:46:16.024Z,100894.66
2023-01-01T06:48:42.562Z,100894.13
2023-01-01T06:51:12.143Z,100899.66
2023-01-01T06:53:38.603Z,100914.66
2023-01-01T06:56:05.479Z,100900.31
2023-01-01T06:58:32.045Z,100908.13
2023-01-01T07:01:16.017Z,100913.66
2023-01-01T07:03:44.031Z,100894.00
2023-01-01T07:06:11.075Z,100910.97
2023-01-01T07:08:37.748Z,100910.47
2023-01-01T07:11:05.403Z,100919.47
2023-01-01T07:13:31.799Z,100906.13
2023-01-01T07:15:59.347Z,100935.91
2023-01-01T07:18:28.726Z,100923.28
2023-01-01T07:21:04.056Z,100943.38
2023-01-01T07:23:33.473Z,100940.31
2023-01-01T07:25:59.862Z,100940.97
2023-01-01T07:28:27.272Z,100945.44
2023-01-01T07:30:54.247Z,100947.81
2023-01-01T07:33:23.200Z,100959.59
2023-01-01T07:35:49.800Z,100966.09
2023-01-01T07:38:16.260Z,100969.81
2023-01-01T07:40:42.838Z,100977.28
2023-01-01T07:43:10.141Z,100990.88
2023-01-01T07:45:36.593Z,100982.13
2023-01-01T07:48:03.164Z,100988.50
2023-01-01T07:50:32.217Z,100982.25
2023-01-01T07:52:58.910Z,100984.47
2023-01-01T07:55:25.513Z,100991.19
2023-01-01T07:57:51.883Z,101001.19
2023-01-01T08:00:20.796Z,100997.56
2023-01-01T08:02:47.696Z,100993.28
2023-01-01T08:05:14.242Z,101015.41
2023-01-01T08:07:40.759Z,101023.72
2023-01-01T08:10:07.875Z,101020.53
2023-01-01T08:12:34.310Z,101011.63
2023-01-01T08:15:00.739Z,101018.94
2023-01-01T08:17:27.086Z,101032.75
2023-01-01T08:19:53.462Z,101047.81
2023-01-01T08:22:19.828Z,101045.97
2023-01-01T08:24:46.176Z,101045.09
2023-01-01T08:27:14.522Z,101043.41
2023-01-01T08:29:41.254Z,101044.88
2023-01-01T08:32:10.171Z,101036.94
2023-01-01T08:34:36.622Z,101038.41
2023-01-01T08:37:03.060Z,101048.19
2023-01-01T08:39:29.850Z,101047.44
2023-01-01T08:41:56.201Z,101064.22
2023-01-01T08:44:22.870Z,101068.25
2023-01-01T08:46:49.538Z,101074.84
2023-01-01T08:49:15.897Z,101084.03
2023-01-01T08:51:42.228Z,101078.53
2023-01-01T08:54:08.667Z,101088.56
2023-01-01T08:56:37.539Z,101074.75
2023-01-01T08:59:04.693Z,101090.75
2023-01-01T09:01:31.279Z,101098.50
2023-01-01T09:03:57.762Z,101088.06
2023-01-01T09:06:24.287Z,101101.53
2023-01-01T09:08:51.272Z,101108.66
2023-01-01T09:11:23.601Z,101121.75
2023-01-01T09:13:50.057Z,101124.19
2023-01-01T09:16:16.488Z,101128.56
2023-01-01T09:18:42.869Z,101127.13
2023-01-01T09:21:09.290Z,101129.31
2023-01-01T09:23:36.177Z,101133.97
2023-01-01T09:26:04.747Z,101124.19
2023-01-01T09:28:31.342Z,101129.56
2023-01-01T09:30:57.878Z,101135.59
2023-01-01T09:33:24.359Z,101134.69
2023-01-01T09:35:50.786Z,101134.59
2023-01-01T09:38:17.124Z,101137.19
2023-01-01T09:41:18.342Z,101135.94
2023-01-01T09:43:50.612Z,101143.03
2023-01-01T09:46:17.367Z,101146.34
2023-01-01T09:48:58.518Z,101157.97
2023-01-01T09:51:30.242Z,101153.56
2023-01-01T09:54:06.507Z,101150.63
2023-01-01T09:56:35.761Z,101148.53
2023-01-01T09:59:02.688Z,101155.66
2023-01-01T10:01:56.118Z,101150.38
2023-01-01T10:05:01.722Z,101172.41
2023-01-01T10:07:30.974Z,101166.28
2023-01-01T10:10:32.398Z,101169.63
2023-01-01T10:13:20.515Z,101167.53
2023-01-01T10:16:08.045Z,101179.16
2023-01-01T10:18:38.286Z,101181.34
2023-01-01T10:21:46.961Z,101162.63
2023-01-01T10:24:27.789Z,101154.03
2023-01-01T10:26:55.818Z,101158.22
2023-01-01T10:29:53.044Z,101158.09
2023-01-01T10:32:28.813Z,101153.81
2023-01-01T10:34:56.515Z,101149.53
2023-01-01T10:37:23.057Z,101150.88
2023-01-01T10:39:50.183Z,101155.28
2023-01-01T10:42:16.675Z,101152.34
2023-01-01T10:44:43.670Z,101146.09
2023-01-01T10:47:33.019Z,101155.53
2023-01-01T10:50:07.878Z,101149.16
2023-01-01T10:52:40.693Z,101135.69
2023-01-01T10:55:21.402Z,101134.47
2023-01-01T10:57:47.736Z,101139.97
2023-01-01T11:00:26.934Z,101141.56
2023-01-01T11:03:14.176Z,101146.47
2023-01-01T11:05:40.617Z,101148.91
2023-01-01T11:08:18.790Z,101143.28
2023-01-01T11:10:51.970Z,101151.22
2023-01-01T11:13:20.399Z,101154.28
2023-01-01T11:15:47.421Z,101156.13
2023-01-01T11:18:19.763Z,101158.56
2023-01-01T11:20:55.232Z,101172.91
2023-01-01T11:23:30.069Z,101168.34
2023-01-01T11:25:59.018Z,101169.97
2023-01-01T11:28:26.238Z,101175.97
2023-01-01T11:31:12.595Z,101179.13
2023-01-01T11:33:52.675Z,101176.81
2023-01-01T11:36:24.574Z,101182.56
2023-01-01T11:39:07.954Z,101205.25
2023-01-01T11:42:00.528Z,101189.94
2023-01-01T11:44:40.955Z,101181.84
2023-01-01T11:47:19.786Z,101185.78
2023-01-01T11:49:52.991Z,101195.06
2023-01-01T11:52:38.738Z,101194.50
2023-01-01T11:55:27.120Z,101210.38
2023-01-01T11:58:11.992Z,101199.13
2023-01-01T12:00:41.289Z,101193.00
2023-01-01T12:03:39.732Z,101195.72
2023-01-01T12:06:15.829Z,101195.97
2023-01-01T12:08:46.935Z,101197.41
2023-01-01T12:11:34.658Z,101189.81
2023-01-01T12:14:32.978Z,101187.72
2023-01-01T12:17:33.750Z,101169.59
2023-01-01T12:20:21.903Z,101174.47
2023-01-01T12:22:48.388Z,101166.28
2023-01-01T12:25:18.271Z,101174.84
2023-01-01T12:28:12.133Z,101165.81
2023-01-01T12:30:51.689Z,101168.25
2023-01-01T12:34:15.148Z,101163.00
2023-01-01T12:36:53.877Z,101168.75
2023-01-01T12:39:55.211Z,101169.88
2023-01-01T12:42:42.876Z,101166.88
2023-01-01T12:45:50.851Z,101174.97
2023-01-01T12:48:41.947Z,101172.53
2023-01-01T12:51:42.744Z,101174.00
2023-01-01T12:54:46.035Z,101170.47
2023-01-01T12:57:15.101Z,101181.72
2023-01-01T12:59:47.219Z,101168.88
2023-01-01T13:02:20.001Z,101171.94
2023-01-01T13:04:49.765Z,101174.16
2023-01-01T13:07:25.601Z,101183.44
2023-01-01T13:09:53.370Z,101176.59
2023-01-01T13:12:24.369Z,101184.69
2023-01-01T13:14:51.622Z,101176.69
2023-01-01T13:17:21.341Z,101176.34
2023-01-01T13:20:13.896Z,101181.13
2023-01-01T13:22:43.582Z,101185.25
2023-01-01T13:25:10.807Z,101184.94
2023-01-01T13:28:04.867Z,101186.25
2023-01-01T13:30:37.794Z,101190.06
2023-01-01T13:33:36.827Z,101193.72
2023-01-01T13:36:09.155Z,101196.91
2023-01-01T13:38:51.916Z,101195.22
2023-01-01T13:41:36.995Z,101190.81
2023-01-01T13:44:03.372Z,101187.72
2023-01-01T13:46:51.771Z,101197.63
2023-01-01T13:49:55.388Z,101190.41
2023-01-01T13:52:36.506Z,101188.81
2023-01-01T13:55:29.670Z,101202.03
2023-01-01T13:58:32.892Z,101203.88
2023-01-01T14:01:23.607Z,101205.94
2023-01-01T14:03:55.127Z,101190.88
2023-01-01T14:06:35.649Z,101193.94
2023-01-01T14:09:15.203Z,101187.25
2023-01-01T14:11:42.053Z,101188.09
2023-01-01T14:14:24.220Z,101186.97
2023-01-01T14:16:52.485Z,101185.50
2023-01-01T14:19:20.568Z,101185.97
2023-01-01T14:21:47.130Z,101197.59
2023-01-01T14:24:18.226Z,101203.47
2023-01-01T14:26:45.118Z,101201.97
2023-01-01T14:29:19.605Z,101204.03
2023-01-01T14:31:46.835Z,101205.63
2023-01-01T14:34:28.013Z,101200.63
2023-01-01T14:37:00.205Z,101216.78
2023-01-01T14:39:29.275Z,101206.03
2023-01-01T14:42:00.744Z,101209.31
2023-01-01T14:44:35.651Z,101214.44
2023-01-01T14:47:04.057Z,101216.03
2023-01-01T14:49:34.601Z,101216.66
2023-01-01T14:52:06.125Z,101224.84
2023-01-01T14:54:38.077Z,101224.72
2023-01-01T14:57:12.324Z,101222.78
2023-01-01T14:59:46.399Z,101223.13
2023-01-01T15:02:20.917Z,101229.09
2023-01-01T15:04:48.278Z,101238.41
2023-01-01T15:07:30.226Z,101244.91
2023-01-01T15:10:02.342Z,101235.97
2023-01-01T15:12:29.716Z,101229.00
2023-01-01T15:14:57.992Z,101221.97
2023-01-01T15:17:26.058Z,101223.63
2023-01-01T15:20:19.202Z,101214.63
2023-01-01T15:22:45.837Z,101211.41
2023-01-01T15:25:14.647Z,101212.06
2023-01-01T15:27:44.050Z,101207.03
2023-01-01T15:30:29.560Z,101208.13
2023-01-01T15:32:56.424Z,101200.28
2023-01-01T15:35:32.025Z,101205.00
2023-01-01T15:38:10.104Z,101199.41
2023-01-01T15:40:36.953Z,101206.50
2023-01-01T15:43:03.271Z,101214.34
2023-01-01T15:45:36.415Z,101209.59
2023-01-01T15:48:05.501Z,101219.72
2023-01-01T15:50:50.338Z,101220.47
2023-01-01T15:53:23.640Z,101227.28
2023-01-01T15:56:00.219Z,101230.94
2023-01-01T15:58:34.321Z,101229.00
2023-01-01T16:01:05.354Z,101227.19
2023-01-01T16:03:34.976Z,101231.03
2023-01-01T16:06:01.625Z,101228.34
2023-01-01T16:08:27.965Z,101228.19
2023-01-01T16:10:54.281Z,101235.84
2023-01-01T16:13:20.690Z,101236.06
2023-01-01T16:16:01.469Z,101233.06
2023-01-01T16:18:38.411Z,101232.88
2023-01-01T16:21:05.654Z,101218.91
2023-01-01T16:23:32.037Z,101220.19
2023-01-01T16:25:58.354Z,101223.03
2023-01-01T16:28:24.684Z,101224.97
2023-01-01T16:30:52.067Z,101228.75
2023-01-01T16:33:22.860Z,101230.78
2023-01-01T16:35:50.508Z,101231.00
2023-01-01T16:38:18.182Z,101233.03
2023-01-01T16:40:44.515Z,101236.06
2023-01-01T16:43:18.337Z,101241.16
2023-01-01T16:45:45.164Z,101235.88
2023-01-01T16:48:11.834Z,101236.66
2023-01-01T16:50:38.229Z,101238.50
2023-01-01T16:53:04.733Z,101243.75
2023-01-01T16:55:31.221Z,101229.69
2023-01-01T16:58:21.165Z,101237.75
2023-01-01T17:00:43.998Z,101232.06
2023-01-01T17:03:10.558Z,101237.97
2023-01-01T17:05:43.643Z,101223.03
2023-01-01T17:08:10.652Z,101235.72
2023-01-01T17:10:36.977Z,101226.06
2023-01-01T17:13:03.470Z,101224.88
2023-01-01T17:15:31.735Z,101214.53
2023-01-01T17:17:58.906Z,101210.97
2023-01-01T17:20:26.587Z,101208.06
2023-01-01T17:22:53.211Z,101205.81
2023-01-01T17:25:19.691Z,101197.31
2023-01-01T17:27:46.143Z,101193.34
2023-01-01T17:30:13.516Z,101183.69
2023-01-01T17:32:40.054Z,101188.72
2023-01-01T17:35:07.400Z,101194.19
2023-01-01T17:37:33.814Z,101195.47
2023-01-01T17:40:00.321Z,101192.44
2023-01-01T17:42:26.702Z,101189.66
2023-01-01T17:44:53.079Z,101187.28
2023-01-01T17:47:19.391Z,101187.03
2023-01-01T17:49:48.415Z,101185.75
2023-01-01T17:52:14.740Z,101177.84
2023-01-01T17:54:41.074Z,101169.88
2023-01-01T17:57:09.596Z,101179.38
2023-01-01T17:59:35.927Z,101180.38
2023-01-01T18:02:02.456Z,101172.03
2023-01-01T18:04:29.101Z,101167.28
2023-01-01T18:06:58.513Z,101165.81
2023-01-01T18:09:28.828Z,101165.81
2023-01-01T18:11:55.375Z,101162.38
2023-01-01T18:14:24.707Z,101161.16
2023-01-01T18:16:51.352Z,101157.72
2023-01-01T18:19:17.770Z,101155.25
2023-01-01T18:21:44.128Z,101159.88
2023-01-01T18:24:15.209Z,101150.97
2023-01-01T18:26:42.414Z,101152.13
2023-01-01T18:29:08.859Z,101151.50
2023-01-01T18:31:35.810Z,101158.47
2023-01-01T18:34:04.106Z,101152.56
2023-01-01T18:36:33.153Z,101142.69
2023-01-01T18:39:01.007Z,101141.41
2023-01-01T18:42:01.390Z,101138.31
2023-01-01T18:44:32.744Z,101145.28
2023-01-01T18:47:12.289Z,101152.78
2023-01-01T18:49:39.742Z,101145.69
2023-01-01T18:52:06.052Z,101136.13
2023-01-01T18:54:33.032Z,101133.78
2023-01-01T18:57:05.284Z,101137.00
2023-01-01T18:59:32.127Z,101128.06
2023-01-01T19:01:58.661Z,101123.69
2023-01-01T19:04:25.069Z,101118.34
2023-01-01T19:06:51.399Z,101118.41
2023-01-01T19:09:23.240Z,101111.91
2023-01-01T19:11:52.172Z,101104.63
2023-01-01T19:14:20.988Z,101108.16
2023-01-01T19:16:48.954Z,101103.25
2023-01-01T19:19:24.431Z,101102.81
2023-01-01T19:21:57.167Z,101106.53
2023-01-01T19:24:26.327Z,101099.34
2023-01-01T19:27:16.642Z,101101.09
2023-01-01T19:29:45.773Z,101101.72
2023-01-01T19:32:12.154Z,101098.19
2023-01-01T19:34:39.640Z,101083.03
2023-01-01T19:37:09.270Z,101083.34
2023-01-01T19:39:35.995Z,101081.56
2023-01-01T19:42:05.129Z,101072.00
2023-01-01T19:44:32.190Z,101082.41
2023-01-01T19:47:00.389Z,101074.47
2023-01-01T19:49:27.976Z,101060.31
2023-01-01T19:51:55.274Z,101055.72
2023-01-01T19:54:21.919Z,101045.84
2023-01-01T19:56:49.934Z,101050.13
2023-01-01T19:59:16.268Z,101042.69
2023-01-01T20:01:42.845Z,101033.22
2023-01-01T20:04:09.406Z,101031.59
2023-01-01T20:06:36.236Z,101026.78
2023-01-01T20:09:03.357Z,101024.31
2023-01-01T20:11:31.687Z,101018.66
2023-01-01T20:13:58.387Z,101006.66
2023-01-01T20:16:25.058Z,101002.91
2023-01-01T20:18:51.744Z,100994.31
2023-01-01T20:21:38.759Z,100987.25
2023-01-01T20:24:05.859Z,100978.25
2023-01-01T20:26:32.197Z,100972.66
2023-01-01T20:29:33.907Z,100977.84
2023-01-01T20:32:00.443Z,100967.31
2023-01-01T20:34:26.960Z,100972.56
2023-01-01T20:37:11.923Z,100970.66
2023-01-01T20:39:38.584Z,100967.22
2023-01-01T20:42:05.210Z,100959.72
2023-01-01T20:44:31.647Z,100939.78
2023-01-01T20:46:58.390Z,100931.84
2023-01-01T20:49:24.893Z,100921.34
2023-01-01T20:51:53.024Z,100912.78
2023-01-01T20:54:23.098Z,100906.66
2023-01-01T20:56:50.059Z,100910.63
2023-01-01T21:02:04.934Z,100908.03
2023-01-01T21:04:31.523Z,100918.03
2023-01-01T21:07:00.786Z,100902.91
2023-01-01T21:09:27.163Z,100909.66
2023-01-01T21:11:53.580Z,100898.28
2023-01-01T21:14:23.864Z,100905.25
2023-01-01T21:16:51.696Z,100902.56
2023-01-01T21:19:26.123Z,100900.13
2023-01-01T21:21:55.758Z,100894.66
2023-01-01T21:24:34.897Z,100889.91
2023-01-01T21:27:13.132Z,100889.91
2023-01-01T21:29:52.288Z,100877.81
2023-01-01T21:32:28.043Z,100887.13
2023-01-01T21:34:55.248Z,100881.03
2023-01-01T21:37:45.930Z,100877.28
2023-01-01T21:40:35.372Z,100884.56
2023-01-01T21:43:01.650Z,100881.88
2023-01-01T21:45:32.342Z,100858.59
2023-01-01T21:48:10.947Z,100848.22
2023-01-01T21:50:41.333Z,100850.09
2023-01-01T21:53:15.918Z,100866.28
2023-01-01T21:55:53.272Z,100866.38
2023-01-01T21:58:50.824Z,100859.25
2023-01-01T22:01:20.680Z,100834.50
2023-01-01T22:03:55.671Z,100848.44
2023-01-01T22:06:22.025Z,100848.44
2023-01-01T22:08:48.454Z,100840.88
2023-01-01T22:11:32.710Z,100845.66
2023-01-01T22:14:01.323Z,100837.31
2023-01-01T22:16:29.352Z,100835.50
2023-01-01T22:18:56.711Z,100848.19
2023-01-01T22:21:23.447Z,100846.44
2023-01-01T22:23:55.816Z,100838.19
2023-01-01T22:26:27.646Z,100836.34
2023-01-01T22:29:01.577Z,100845.34
2023-01-01T22:31:33.239Z,100837.63
2023-01-01T22:34:01.646Z,100836.75
2023-01-01T22:36:30.481Z,100834.44
2023-01-01T22:39:12.271Z,100837.84
2023-01-01T22:41:39.349Z,100827.88
2023-01-01T22:44:06.614Z,100839.34
2023-01-01T22:46:39.498Z,100831.53
2023-01-01T22:49:30.802Z,100822.19
2023-01-01T22:51:58.455Z,100826.84
2023-01-01T22:54:24.838Z,100822.00
2023-01-01T22:56:51.163Z,100817.97
2023-01-01T22:59:17.511Z,100831.69
2023-01-01T23:01:43.984Z,100821.28
2023-01-01T23:04:10.403Z,100806.88
2023-01-01T23:06:37.725Z,100804.94
2023-01-01T23:09:04.883Z,100807.50
2023-01-01T23:11:31.331Z,100809.84
2023-01-01T23:14:16.213Z,100811.81
2023-01-01T23:16:42.635Z,100800.72
2023-01-01T23:19:09.003Z,100788.88
2023-01-01T23:21:36.202Z,100791.81
2023-01-01T23:24:06.379Z,100772.47
2023-01-01T23:26:34.894Z,100770.25
2023-01-01T23:29:02.763Z,100765.22
2023-01-01T23:31:31.405Z,100762.41
2023-01-01T23:33:58.869Z,100758.38
2023-01-01T23:36:27.327Z,100749.00
2023-01-01T23:38:54.140Z,100749.09
2023-01-01T23:41:20.568Z,100757.44
2023-01-01T23:43:46.929Z,100757.66
2023-01-01T23:46:14.047Z,100762.53
2023-01-01T23:48:43.267Z,100754.72
2023-01-01T23:51:09.907Z,100749.34
2023-01-01T23:53:36.306Z,100754.34
2023-01-01T23:56:02.926Z,100734.41
2023-01-01T23:58:29.251Z,100751.53
